createdAt,value
2019-04-30T00:03:38.849Z,10.6
2019-04-30T00:08:39.196Z,10.7
2019-04-30T00:13:38.654Z,10.5
2019-04-30T00:18:39.633Z,10.2
2019-04-30T00:23:55.916Z,10.3
2019-04-30T00:28:55.378Z,10.1
2019-04-30T00:33:57.689Z,10
2019-04-30T00:38:59.856Z,9.7
2019-04-30T00:43:59.323Z,9.6
2019-04-30T00:49:08.699Z,9.8
2019-04-30T00:54:15.202Z,9.7
2019-04-30T00:59:16.324Z,9.9
2019-04-30T01:04:19.325Z,9.9
2019-04-30T01:09:25.638Z,10
2019-04-30T01:14:28.073Z,9.9
2019-04-30T01:19:32.821Z,9.9
2019-04-30T01:24:31.992Z,9.8
2019-04-30T01:29:38.014Z,9.6
2019-04-30T01:34:44.116Z,9.7
2019-04-30T01:39:50.225Z,9.6
2019-04-30T01:44:53.482Z,9.3
2019-04-30T01:49:55.772Z,9.5
2019-04-30T01:55:00.884Z,9.6
2019-04-30T02:00:00.627Z,9.5
2019-04-30T02:05:00.031Z,9.4
2019-04-30T02:09:59.735Z,9.5
2019-04-30T02:14:59.777Z,9.6
2019-04-30T02:19:59.528Z,9.6
2019-04-30T02:24:59.614Z,9.8
2019-04-30T02:30:02.501Z,9.8
2019-04-30T02:35:01.840Z,10.2
2019-04-30T02:40:01.600Z,10.2
2019-04-30T02:45:03.680Z,9.6
2019-04-30T02:50:13.514Z,9.4
2019-04-30T02:55:19.403Z,9.2
2019-04-30T03:00:20.326Z,9
2019-04-30T03:05:20.407Z,9
2019-04-30T03:10:20.091Z,8.9
2019-04-30T03:15:22.673Z,8.5
2019-04-30T03:20:32.428Z,8.9
2019-04-30T03:25:34.002Z,8.8
2019-04-30T03:30:33.927Z,9.2
2019-04-30T03:35:33.581Z,9.4
2019-04-30T03:40:33.585Z,9.5
2019-04-30T03:45:32.807Z,9.2
2019-04-30T03:50:48.461Z,9.5
2019-04-30T03:55:53.270Z,9.6
2019-04-30T04:00:53.102Z,9.9
2019-04-30T04:05:53.269Z,10.8
2019-04-30T04:10:53.367Z,11.4
2019-04-30T04:15:53.656Z,12.2
2019-04-30T04:21:08.539Z,13.9
2019-04-30T04:26:12.972Z,13.3
2019-04-30T04:31:11.715Z,12.4
2019-04-30T04:36:11.053Z,12
2019-04-30T04:41:10.618Z,11.5
2019-04-30T04:46:10.332Z,11.8
2019-04-30T04:51:26.945Z,12.1
2019-04-30T04:56:35.262Z,13
2019-04-30T05:01:35.714Z,14.3
2019-04-30T05:06:36.005Z,14.9
2019-04-30T05:11:35.865Z,15.3
2019-04-30T05:16:38.879Z,17.8
2019-04-30T05:21:42.498Z,17.3
2019-04-30T05:26:43.498Z,16.9
2019-04-30T05:31:42.802Z,15.9
2019-04-30T05:36:41.578Z,15.7
2019-04-30T05:41:41.939Z,16.8
2019-04-30T05:46:41.695Z,16.7
2019-04-30T05:51:52.746Z,15.9
2019-04-30T05:56:53.061Z,15.9
2019-04-30T06:01:53.258Z,16.1
2019-04-30T06:06:52.801Z,16
2019-04-30T06:11:52.204Z,16
2019-04-30T06:16:51.841Z,15.8
2019-04-30T06:21:51.678Z,16
2019-04-30T06:26:51.764Z,16.8
2019-04-30T06:31:51.401Z,16.1
2019-04-30T06:36:51.749Z,15.8
2019-04-30T06:42:04.837Z,15.9
2019-04-30T06:47:09.213Z,15.6
2019-04-30T06:52:19.813Z,16.2
2019-04-30T06:57:21.254Z,16
2019-04-30T07:02:20.640Z,15.9
2019-04-30T07:07:22.944Z,16.2
2019-04-30T07:12:34.017Z,15.9
2019-04-30T07:17:33.559Z,15.8
2019-04-30T07:22:39.573Z,16.3
2019-04-30T07:27:47.041Z,16.3
2019-04-30T07:32:46.758Z,15.9
2019-04-30T07:37:49.688Z,16.3
2019-04-30T07:42:52.574Z,15.6
2019-04-30T07:47:51.930Z,15.4
2019-04-30T07:53:01.292Z,15.3
2019-04-30T07:58:04.368Z,16.1
2019-04-30T08:03:04.884Z,16.1
2019-04-30T08:08:17.547Z,16.3
2019-04-30T08:13:22.919Z,16.6
2019-04-30T08:18:23.035Z,16.3
2019-04-30T08:23:33.798Z,15.5
2019-04-30T08:28:34.823Z,16.3
2019-04-30T08:33:34.525Z,15.9
2019-04-30T08:38:34.848Z,16.9
2019-04-30T08:43:34.668Z,17.1
2019-04-30T08:48:45.913Z,17.6
2019-04-30T08:53:50.509Z,17.2
2019-04-30T08:58:50.748Z,18.1
2019-04-30T09:03:51.402Z,18.5
2019-04-30T09:08:51.061Z,18.5
2019-04-30T09:13:51.539Z,19.5
2019-04-30T09:18:51.715Z,19.9
2019-04-30T09:23:52.759Z,20
2019-04-30T09:28:52.743Z,20.3
2019-04-30T09:33:52.062Z,19.1
2019-04-30T09:38:51.126Z,18.6
2019-04-30T09:43:50.410Z,18.4
2019-04-30T09:48:50.798Z,17.4
2019-04-30T09:53:58.406Z,16.3
2019-04-30T09:58:59.865Z,15.3
2019-04-30T10:04:00.260Z,14.4
2019-04-30T10:08:59.816Z,14
2019-04-30T10:13:59.776Z,14.2
2019-04-30T10:19:01.357Z,14.9
2019-04-30T10:24:12.209Z,16.4
2019-04-30T10:29:14.349Z,17.5
2019-04-30T10:34:14.269Z,18
2019-04-30T10:39:14.090Z,18
2019-04-30T10:44:13.402Z,17.9
2019-04-30T10:49:12.778Z,17.6
2019-04-30T10:54:23.153Z,18
2019-04-30T10:59:25.153Z,18.8
2019-04-30T11:04:25.086Z,18.9
2019-04-30T11:09:23.673Z,18.5
2019-04-30T11:14:24.097Z,19
2019-04-30T11:19:24.583Z,19.1
2019-04-30T11:24:35.519Z,19
2019-04-30T11:29:49.762Z,19.6
2019-04-30T11:34:49.633Z,19.7
2019-04-30T11:39:49.934Z,19.2
2019-04-30T11:44:48.876Z,18.2
2019-04-30T11:49:48.183Z,18.3
2019-04-30T11:54:49.692Z,17.6
2019-04-30T11:59:54.185Z,19.1
2019-04-30T12:04:54.183Z,19.4
2019-04-30T12:09:54.480Z,20
2019-04-30T12:14:54.348Z,19.8
2019-04-30T12:19:53.401Z,19.5
2019-04-30T12:25:02.173Z,19.1
2019-04-30T12:30:03.695Z,19.6
2019-04-30T12:35:03.358Z,19.9
2019-04-30T12:40:02.910Z,19.1
2019-04-30T12:45:02.687Z,20
2019-04-30T12:50:02.930Z,20.2
2019-04-30T12:55:14.399Z,19.9
2019-04-30T13:00:13.355Z,19.9
2019-04-30T13:05:13.338Z,20.3
2019-04-30T13:10:13.578Z,19.6
2019-04-30T13:15:13.219Z,19.4
2019-04-30T13:20:19.263Z,19.5
2019-04-30T13:25:29.780Z,18.5
2019-04-30T13:30:32.683Z,18.2
2019-04-30T13:35:32.904Z,19.2
2019-04-30T13:40:33.153Z,20
2019-04-30T13:45:32.705Z,20
2019-04-30T13:50:32.293Z,19.6
2019-04-30T13:55:42.801Z,19
2019-04-30T14:00:43.101Z,19
2019-04-30T14:05:42.238Z,18.6
2019-04-30T14:10:41.913Z,18.2
2019-04-30T14:15:40.937Z,17.4
2019-04-30T14:20:40.360Z,17.3
2019-04-30T14:25:40.404Z,17.9
2019-04-30T14:30:40.527Z,18.4
2019-04-30T14:35:40.191Z,17.9
2019-04-30T14:40:40.673Z,18.3
2019-04-30T14:45:41.582Z,17.6
2019-04-30T14:50:41.623Z,16.9
2019-04-30T14:55:40.755Z,16.4
2019-04-30T15:00:40.276Z,16.5
2019-04-30T15:05:48.306Z,16.1
2019-04-30T15:10:49.354Z,16
2019-04-30T15:15:49.215Z,16.1
2019-04-30T15:20:49.726Z,15.8
2019-04-30T15:25:49.086Z,15.7
2019-04-30T15:30:48.955Z,15.8
2019-04-30T15:35:50.299Z,15.8
2019-04-30T15:40:49.506Z,15.2
2019-04-30T15:45:49.446Z,15.1
2019-04-30T15:50:49.222Z,15.2
2019-04-30T15:55:48.993Z,15.4
2019-04-30T16:00:49.382Z,15.1
2019-04-30T16:05:48.720Z,14.8
2019-04-30T16:10:48.039Z,14.5
2019-04-30T16:15:49.015Z,14.1
2019-04-30T16:20:49.832Z,13.8
2019-04-30T16:25:49.267Z,13.8
2019-04-30T16:30:48.722Z,13.6
2019-04-30T16:35:50.373Z,13.4
2019-04-30T16:40:50.120Z,13.6
2019-04-30T16:45:49.686Z,13.5
2019-04-30T16:50:51.158Z,13.5
2019-04-30T16:55:50.743Z,13.3
2019-04-30T17:00:50.350Z,13.4
2019-04-30T17:05:49.941Z,12.9
2019-04-30T17:10:50.407Z,12.9
2019-04-30T17:15:50.250Z,12.7
2019-04-30T17:20:49.817Z,12.8
2019-04-30T17:25:49.412Z,12.8
2019-04-30T17:30:49.256Z,12.6
2019-04-30T17:35:49.838Z,12.2
2019-04-30T17:40:49.723Z,11.9
2019-04-30T17:45:49.354Z,11.5
2019-04-30T17:50:49.729Z,11.4
2019-04-30T17:55:49.309Z,11.3
2019-04-30T18:00:48.779Z,11
2019-04-30T18:05:49.167Z,10.9
2019-04-30T18:10:47.577Z,11
2019-04-30T18:15:48.372Z,10.4
2019-04-30T18:20:49.122Z,10.1
2019-04-30T18:25:48.603Z,10.3
2019-04-30T18:30:49.020Z,10.1
2019-04-30T18:35:48.784Z,10.2
2019-04-30T18:40:49.525Z,10.1
2019-04-30T18:45:49.461Z,10
2019-04-30T18:50:48.924Z,9.5
2019-04-30T18:55:50.694Z,9.5
2019-04-30T19:00:49.617Z,9.2
2019-04-30T19:05:49.233Z,8.9
2019-04-30T19:10:48.997Z,8.8
2019-04-30T19:16:17.572Z,8.9
2019-04-30T19:21:20.349Z,8.9
2019-04-30T19:26:20.893Z,8.8
2019-04-30T19:31:20.228Z,8.8
2019-04-30T19:36:20.941Z,8.8
2019-04-30T19:41:34.049Z,8.9
2019-04-30T19:46:34.087Z,8.7
2019-04-30T19:51:34.336Z,8.8
2019-04-30T19:56:33.847Z,8.4
2019-04-30T20:01:33.642Z,8.4
2019-04-30T20:06:33.353Z,8.3
2019-04-30T20:11:32.803Z,8.3
2019-04-30T20:16:32.549Z,8.4
2019-04-30T20:21:45.574Z,8
2019-04-30T20:26:50.501Z,8.1
2019-04-30T20:32:04.120Z,7.9
2019-04-30T20:37:03.539Z,7.8
2019-04-30T20:42:02.892Z,7.7
2019-04-30T20:47:02.612Z,7.2
2019-04-30T20:52:02.325Z,7
2019-04-30T20:57:02.075Z,7.3
2019-04-30T21:02:02.221Z,7.8
2019-04-30T21:07:02.458Z,7.9
2019-04-30T21:12:01.639Z,7.7
2019-04-30T21:17:01.207Z,7.4
2019-04-30T21:22:00.747Z,7.2
2019-04-30T21:27:00.193Z,6.6
2019-04-30T21:31:59.813Z,6.2
2019-04-30T21:36:59.641Z,6.4
2019-04-30T21:41:59.510Z,6.1
2019-04-30T21:46:59.202Z,6.4
2019-04-30T21:51:59.063Z,6.3
2019-04-30T21:56:58.900Z,6.3
2019-04-30T22:01:58.445Z,6.3
2019-04-30T22:06:59.500Z,6.2
2019-04-30T22:11:59.227Z,6.2
2019-04-30T22:16:59.376Z,5.8
2019-04-30T22:21:59.443Z,5.5
2019-04-30T22:26:58.702Z,5.8
2019-04-30T22:31:59.361Z,5.7
2019-04-30T22:36:58.726Z,5.6
2019-04-30T22:41:58.372Z,5.4
2019-04-30T22:46:58.982Z,5.3
2019-04-30T22:51:59.712Z,5.3
2019-04-30T22:56:59.409Z,5.2
2019-04-30T23:01:59.315Z,5.5
2019-04-30T23:06:58.707Z,5.1
2019-04-30T23:11:58.280Z,5.3
2019-04-30T23:16:57.820Z,5.2
2019-04-30T23:21:57.637Z,5
2019-04-30T23:26:57.474Z,5
2019-04-30T23:31:57.183Z,5.1
2019-04-30T23:36:57.074Z,5.3
2019-04-30T23:41:56.943Z,5.4
2019-04-30T23:46:56.755Z,5.4
2019-04-30T23:51:56.762Z,5.8
2019-04-30T23:56:56.416Z,5.9
